Aviation Digital Data Service (ADDS)

Output produced by METARs form (0122 UTC 17 July 2019)
found at http://www.aviationweather.gov/metar/data/
 
TAF AMD WPDL 170006Z 1700/1712 33008KT CAVOK 
     FM171000 VRB03KT CAVOK